Latest Weather Observations for Inner Beacon

IDQ60901

Issued at 10:01 pm EST Tuesday 6 December 2016 (issued every 10 minutes, with the page automatically refreshed every 10 minutes)

About weather observations | Map of Brisbane area stations | Latest observations for Brisbane area | Other Formats
Station Details ID: 040926 Name: INNER RECIPROCAL MARKER Lat: -27.26 Lon: 153.24 Height: 20.0 m
Data from the previous 72 hours. | See also: Recent months for locations in Queensland
Date/Time
EST
Temp
°C
App
Temp
°C
Dew
Point
°C
Rel
Hum
%
Delta-T
°C
Wind Press
QNH
hPa
Press
MSL
hPa
Rain since
9am
mm
Dir  Spd
km/h
Gust
km/h
Spd
kts
Gust
kts
06/10:00pm - - - - - N 54 65 29 35 - - -
06/09:30pm - - - - - N 52 65 28 35 - - -
06/09:00pm - - - - - N 52 63 28 34 - - -
06/08:30pm - - - - - N 50 61 27 33 - - -
06/08:00pm - - - - - N 50 61 27 33 - - -
06/07:30pm - - - - - N 52 61 28 33 - - -
06/07:00pm - - - - - NNE 52 61 28 33 - - -
06/06:30pm - - - - - NNE 50 57 27 31 - - -
06/06:00pm - - - - - NNE 48 59 26 32 - - -
06/05:30pm - - - - - NNE 46 54 25 29 - - -
06/05:00pm - - - - - NNE 44 52 24 28 - - -
06/04:30pm - - - - - N 43 50 23 27 - - -
06/04:00pm - - - - - N 43 48 23 26 - - -
06/03:30pm - - - - - N 39 46 21 25 - - -
06/03:00pm - - - - - N 43 48 23 26 - - -
06/02:30pm - - - - - N 43 50 23 27 - - -
06/02:00pm - - - - - N 41 50 22 27 - - -
06/01:30pm - - - - - N 41 46 22 25 - - -
06/01:00pm - - - - - N 39 48 21 26 - - -
06/12:30pm - - - - - N 39 44 21 24 - - -
06/12:00pm - - - - - N 39 46 21 25 - - -
06/11:30am - - - - - N 41 46 22 25 - - -
06/11:00am - - - - - N 39 46 21 25 - - -
06/10:30am - - - - - N 39 44 21 24 - - -
06/10:00am - - - - - N 37 41 20 22 - - -
06/09:30am - - - - - N 35 41 19 22 - - -
06/09:00am - - - - - N 39 46 21 25 - - -
06/08:30am - - - - - NNE 37 46 20 25 - - -
06/08:00am - - - - - NNE 33 39 18 21 - - -
06/07:30am - - - - - NE 35 43 19 23 - - -
06/07:00am - - - - - NE 35 43 19 23 - - -
06/06:30am - - - - - ENE 33 41 18 22 - - -
06/06:00am - - - - - ENE 26 33 14 18 - - -
06/05:30am - - - - - NE 30 33 16 18 - - -
06/05:00am - - - - - NNE 30 33 16 18 - - -
06/04:30am - - - - - NNE 28 32 15 17 - - -
06/04:00am - - - - - NNE 32 35 17 19 - - -
06/03:30am - - - - - N 30 33 16 18 - - -
06/03:00am - - - - - N 35 41 19 22 - - -
06/02:30am - - - - - N 30 37 16 20 - - -
06/02:00am - - - - - N 39 46 21 25 - - -
06/01:30am - - - - - N 43 54 23 29 - - -
06/01:00am - - - - - N 46 57 25 31 - - -
06/12:30am - - - - - N 46 57 25 31 - - -
06/12:00am - - - - - N 50 59 27 32 - - -
 
Date/Time
EST
Temp
°C
App
Temp
°C
Dew
Point
°C
Rel
Hum
%
Delta-T
°C
Wind Press
QNH
hPa
Press
MSL
hPa
Rain since
9am
mm
Dir  Spd
km/h
Gust
km/h
Spd
kts
Gust
kts
05/11:30pm - - - - - N 50 59 27 32 - - -
05/11:00pm - - - - - N 52 65 28 35 - - -
05/10:30pm - - - - - N 52 63 28 34 - - -
05/10:00pm - - - - - N 50 63 27 34 - - -
05/09:30pm - - - - - N 52 59 28 32 - - -
05/09:00pm - - - - - N 50 61 27 33 - - -
05/08:30pm - - - - - N 50 59 27 32 - - -
05/08:00pm - - - - - N 52 63 28 34 - - -
05/07:30pm - - - - - N 50 61 27 33 - - -
05/07:00pm - - - - - N 48 61 26 33 - - -
05/06:30pm - - - - - N 50 59 27 32 - - -
05/06:00pm - - - - - N 50 61 27 33 - - -
05/05:30pm - - - - - N 52 61 28 33 - - -
05/05:00pm - - - - - N 50 61 27 33 - - -
05/04:30pm - - - - - N 48 59 26 32 - - -
05/04:00pm - - - - - N 48 59 26 32 - - -
05/03:30pm - - - - - NNE 48 57 26 31 - - -
05/03:00pm - - - - - NNE 48 56 26 30 - - -
05/02:30pm - - - - - NNE 44 54 24 29 - - -
05/02:00pm - - - - - NNE 43 50 23 27 - - -
05/01:30pm - - - - - NNE 43 50 23 27 - - -
05/01:00pm - - - - - NNE 43 50 23 27 - - -
05/12:30pm - - - - - NNE 41 48 22 26 - - -
05/12:00pm - - - - - NNE 43 46 23 25 - - -
05/11:30am - - - - - NNE 39 46 21 25 - - -
05/11:00am - - - - - N 39 44 21 24 - - -
05/10:30am - - - - - N 39 44 21 24 - - -
05/10:00am - - - - - N 39 44 21 24 - - -
05/09:30am - - - - - N 37 43 20 23 - - -
05/09:00am - - - - - N 37 43 20 23 - - -
05/08:30am - - - - - N 35 39 19 21 - - -
05/08:00am - - - - - N 32 35 17 19 - - -
05/07:30am - - - - - N 30 33 16 18 - - -
05/07:00am - - - - - N 30 35 16 19 - - -
05/06:30am - - - - - N 32 35 17 19 - - -
05/06:00am - - - - - N 32 35 17 19 - - -
05/05:30am - - - - - N 32 35 17 19 - - -
05/05:00am - - - - - N 32 37 17 20 - - -
05/04:30am - - - - - N 32 35 17 19 - - -
05/04:00am - - - - - N 33 37 18 20 - - -
05/03:30am - - - - - N 33 39 18 21 - - -
05/03:00am - - - - - N 33 39 18 21 - - -
05/02:30am - - - - - N 30 35 16 19 - - -
05/02:00am - - - - - N 32 37 17 20 - - -
05/01:30am - - - - - N 30 39 16 21 - - -
05/01:00am - - - - - N 32 35 17 19 - - -
05/12:30am - - - - - N 33 37 18 20 - - -
05/12:00am - - - - - N 35 41 19 22 - - -
 
Date/Time
EST
Temp
°C
App
Temp
°C
Dew
Point
°C
Rel
Hum
%
Delta-T
°C
Wind Press
QNH
hPa
Press
MSL
hPa
Rain since
9am
mm
Dir  Spd
km/h
Gust
km/h
Spd
kts
Gust
kts
04/11:30pm - - - - - N 33 39 18 21 - - -
04/11:00pm - - - - - N 35 41 19 22 - - -
04/10:30pm - - - - - N 33 39 18 21 - - -
04/10:00pm - - - - - N 35 41 19 22 - - -
04/09:30pm - - - - - N 35 41 19 22 - - -
04/09:00pm - - - - - N 35 39 19 21 - - -
04/08:30pm - - - - - N 33 39 18 21 - - -
04/08:00pm - - - - - N 35 43 19 23 - - -
04/07:30pm - - - - - N 33 37 18 20 - - -
04/07:00pm - - - - - NNE 32 37 17 20 - - -
04/06:30pm - - - - - NNE 33 39 18 21 - - -
04/06:00pm - - - - - NNE 35 41 19 22 - - -
04/05:30pm - - - - - NNE 37 43 20 23 - - -
04/05:00pm - - - - - NNE 37 43 20 23 - - -
04/04:30pm - - - - - NNE 39 46 21 25 - - -
04/04:00pm - - - - - NNE 37 43 20 23 - - -
04/03:30pm - - - - - NNE 39 44 21 24 - - -
04/03:00pm - - - - - NNE 39 46 21 25 - - -
04/02:30pm - - - - - NNE 35 43 19 23 - - -
04/02:00pm - - - - - NNE 37 43 20 23 - - -
04/01:30pm - - - - - NNE 37 43 20 23 - - -
04/01:00pm - - - - - NNE 35 43 19 23 - - -
04/12:30pm - - - - - N 35 41 19 22 - - -
04/12:00pm - - - - - NNE 33 39 18 21 - - -
04/11:30am - - - - - NNE 30 37 16 20 - - -
04/11:00am - - - - - NNE 30 33 16 18 - - -
04/10:30am - - - - - N 28 32 15 17 - - -
04/10:00am - - - - - N 24 30 13 16 - - -
04/09:30am - - - - - N 24 28 13 15 - - -
04/09:00am - - - - - N 20 24 11 13 - - -
04/08:30am - - - - - N 20 26 11 14 - - -
04/08:00am - - - - - N 19 24 10 13 - - -
04/07:30am - - - - - N 15 17 8 9 - - -
04/07:00am - - - - - N 13 15 7 8 - - -
04/06:30am - - - - - NNE 9 11 5 6 - - -
04/06:00am - - - - - ENE 15 19 8 10 - - -
04/05:30am - - - - - ENE 15 19 8 10 - - -
04/05:00am - - - - - E 17 20 9 11 - - -
04/04:30am - - - - - SE 20 24 11 13 - - -
04/04:00am - - - - - SSE 26 32 14 17 - - -
04/03:30am - - - - - SW 17 20 9 11 - - -
04/03:00am - - - - - SSW 15 17 8 9 - - -
04/02:30am - - - - - WSW 13 17 7 9 - - -
04/02:00am - - - - - WNW 17 26 9 14 - - -
04/01:30am - - - - - NW 26 32 14 17 - - -
04/01:00am - - - - - NW 22 28 12 15 - - -
04/12:30am - - - - - WNW 19 22 10 12 - - -
04/12:00am - - - - - NNW 28 33 15 18 - - -
 
Date/Time
EST
Temp
°C
App
Temp
°C
Dew
Point
°C
Rel
Hum
%
Delta-T
°C
Wind Press
QNH
hPa
Press
MSL
hPa
Rain since
9am
mm
Dir  Spd
km/h
Gust
km/h
Spd
kts
Gust
kts
03/11:30pm - - - - - N 28 32 15 17 - - -
03/11:00pm - - - - - N 28 35 15 19 - - -
03/10:30pm - - - - - NNE 17 20 9 11 - - -

Latest Capital City Observations: Canberra | Sydney | Melbourne | Brisbane | Adelaide | Perth | Hobart | Darwin

Other Formats:

Comma delimited format used in spreadsheet applications
http://www.bom.gov.au/fwo/IDQ60901/IDQ60901.94590.axf

JavaScript Object Notation format (JSON) in row-major order
http://www.bom.gov.au/fwo/IDQ60901/IDQ60901.94590.json